Time;durP1;ratioP1;P1;durP2;ratioP2;P2;SDS_P1;SDS_P2;PMS_P1;PMS_P2;Temp;Humidity;BMP_temperature;BMP_pressure;BME280_temperature;BME280_humidity;BME280_pressure;Samples;Min_cycle;Max_cycle;Signal;HPM_P1;HPM_P2
2022/04/12 00:01:04;;;;;;;4.77;3.87;;;;;;;1.23;100.00;99622.81;6125309;23;20606;-78
2022/04/12 00:03:31;;;;;;;7.30;4.20;;;;;;;1.12;100.00;99620.50;6125311;23;20163;-78
2022/04/12 00:05:58;;;;;;;5.97;4.10;;;;;;;1.07;100.00;99620.16;6125139;23;20167;-78
2022/04/12 00:08:25;;;;;;;5.23;4.20;;;;;;;1.05;100.00;99620.28;6125385;23;20798;-77
2022/04/12 00:10:52;;;;;;;4.80;4.17;;;;;;;0.98;100.00;99618.47;6125078;23;20274;-77
2022/04/12 00:13:19;;;;;;;7.30;4.57;;;;;;;0.95;100.00;99622.22;6099579;23;20168;-77
2022/04/12 00:15:50;;;;;;;5.67;4.37;;;;;;;0.89;100.00;99628.13;6125116;23;20160;-77
2022/04/12 00:21:02;;;;;;;5.70;4.23;;;;;;;0.84;100.00;99618.03;6125066;23;20218;-77
2022/04/12 00:23:29;;;;;;;5.47;4.57;;;;;;;0.79;100.00;99608.97;6125143;23;20172;-77
2022/04/12 00:25:56;;;;;;;7.33;4.73;;;;;;;0.75;100.00;99612.88;6125053;23;20163;-79
2022/04/12 00:28:23;;;;;;;4.80;4.07;;;;;;;0.72;100.00;99605.31;6125759;23;20160;-79
2022/04/12 00:30:50;;;;;;;5.43;4.13;;;;;;;0.71;100.00;99601.00;6125545;23;20187;-80
2022/04/12 00:33:17;;;;;;;6.53;4.27;;;;;;;0.68;100.00;99598.69;6125341;23;20184;-78
2022/04/12 00:35:43;;;;;;;4.63;4.00;;;;;;;0.62;100.00;99602.78;6124570;23;20215;-78
2022/04/12 00:38:17;;;;;;;6.83;4.33;;;;;;;0.59;100.00;99599.63;6124894;23;20186;-78
2022/04/12 00:40:45;;;;;;;5.33;4.47;;;;;;;0.55;100.00;99599.13;6124751;23;20179;-77
2022/04/12 00:43:12;;;;;;;6.03;4.77;;;;;;;0.51;100.00;99595.16;6124684;23;20488;-78
2022/04/12 00:45:39;;;;;;;7.00;4.67;;;;;;;0.56;100.00;99599.97;6124553;23;20163;-77
2022/04/12 00:48:06;;;;;;;6.07;4.40;;;;;;;0.42;100.00;99598.72;6125015;23;20497;-77
2022/04/12 00:50:32;;;;;;;5.93;4.47;;;;;;;0.38;100.00;99592.09;6124291;23;20661;-77
2022/04/12 00:52:59;;;;;;;6.10;4.70;;;;;;;0.34;100.00;99596.84;6124913;23;20163;-78
2022/04/12 00:55:29;;;;;;;6.33;4.47;;;;;;;0.31;100.00;99594.53;6124525;23;20174;-75
2022/04/12 00:57:56;;;;;;;4.87;3.60;;;;;;;0.30;100.00;99595.50;6099582;23;20219;-77
2022/04/12 01:00:23;;;;;;;6.53;4.60;;;;;;;0.30;100.00;99597.31;6124519;23;20199;-79
2022/04/12 01:02:50;;;;;;;4.63;3.93;;;;;;;0.25;100.00;99594.31;6125244;23;20191;-78
2022/04/12 01:05:17;;;;;;;5.90;4.13;;;;;;;0.21;100.00;99593.81;6124854;23;20167;-77
2022/04/12 01:07:44;;;;;;;8.03;4.80;;;;;;;0.18;100.00;99594.13;6124936;23;20167;-77
2022/04/12 01:10:11;;;;;;;7.07;4.30;;;;;;;0.18;100.00;99591.50;6124625;23;20238;-77
2022/04/12 01:12:39;;;;;;;5.93;4.30;;;;;;;0.26;100.00;99593.34;6125215;23;20194;-77
2022/04/12 01:15:17;;;;;;;6.33;4.23;;;;;;;0.15;100.00;99601.47;6098910;23;20190;-80
2022/04/12 01:17:45;;;;;;;5.07;4.10;;;;;;;0.12;100.00;99604.44;6124959;23;20925;-78
2022/04/12 01:20:13;;;;;;;6.37;4.23;;;;;;;0.05;100.00;99600.78;6124533;23;20196;-78
2022/04/12 01:22:47;;;;;;;6.73;4.93;;;;;;;0.00;100.00;99596.75;6124789;23;20657;-78
2022/04/12 01:25:14;;;;;;;5.83;4.50;;;;;;;-0.04;100.00;99603.31;6124745;23;20159;-78
2022/04/12 01:27:40;;;;;;;6.47;4.60;;;;;;;-0.09;100.00;99602.13;6125045;23;20174;-77
2022/04/12 01:30:08;;;;;;;7.33;4.63;;;;;;;-0.13;100.00;99596.34;6124803;23;20183;-78
2022/04/12 01:32:34;;;;;;;5.80;4.33;;;;;;;-0.14;100.00;99601.78;6124951;23;20163;-77
2022/04/12 01:35:01;;;;;;;9.43;5.07;;;;;;;-0.20;100.00;99607.66;6124569;23;20166;-77
2022/04/12 01:37:28;;;;;;;5.87;4.60;;;;;;;-0.27;100.00;99607.41;6124581;23;20156;-77
2022/04/12 01:39:55;;;;;;;5.73;4.77;;;;;;;-0.28;100.00;99602.31;6124791;23;20172;-77
2022/04/12 01:42:22;;;;;;;6.03;4.27;;;;;;;-0.32;100.00;99596.50;6124568;23;20654;-77
2022/04/12 01:44:49;;;;;;;5.37;4.43;;;;;;;-0.31;100.00;99606.06;6124360;23;20274;-79
2022/04/12 01:47:17;;;;;;;5.30;4.80;;;;;;;-0.34;100.00;99602.91;6124702;23;20541;-78
2022/04/12 01:49:44;;;;;;;6.80;4.67;;;;;;;-0.34;100.00;99601.09;6124264;23;20168;-78
2022/04/12 01:52:11;;;;;;;7.20;4.90;;;;;;;-0.33;100.00;99609.84;6124678;23;20501;-76
2022/04/12 01:54:38;;;;;;;4.97;4.40;;;;;;;-0.39;100.00;99608.63;6098508;23;20561;-77
2022/04/12 01:57:05;;;;;;;7.47;4.90;;;;;;;-0.40;100.00;99604.34;6124514;23;20195;-77
2022/04/12 01:59:32;;;;;;;7.23;4.83;;;;;;;-0.39;100.00;99602.53;6124387;23;20171;-78
2022/04/12 02:01:59;;;;;;;6.03;5.00;;;;;;;-0.46;100.00;99597.03;6124423;23;20704;-77
2022/04/12 02:04:26;;;;;;;6.53;4.87;;;;;;;-0.47;100.00;99604.09;6124756;23;20172;-78
2022/04/12 02:06:52;;;;;;;8.27;5.23;;;;;;;-0.48;100.00;99606.91;6125423;23;20549;-78
2022/04/12 02:09:19;;;;;;;7.67;4.60;;;;;;;-0.53;100.00;99599.44;6126565;23;20167;-78
2022/04/12 02:11:46;;;;;;;5.57;4.80;;;;;;;-0.54;100.00;99600.41;6126255;23;20183;-78
2022/04/12 02:14:12;;;;;;;6.13;4.83;;;;;;;-0.55;100.00;99603.19;6126498;23;20194;-78
2022/04/12 02:16:39;;;;;;;7.27;5.03;;;;;;;-0.55;100.00;99608.44;6126327;23;20168;-78
2022/04/12 02:19:06;;;;;;;8.53;4.90;;;;;;;-0.57;100.00;99606.00;6125842;23;20202;-78
2022/04/12 02:21:32;;;;;;;6.40;5.10;;;;;;;-0.61;100.00;99611.69;6126117;23;20619;-78
2022/04/12 02:23:59;;;;;;;8.93;5.27;;;;;;;-0.64;100.00;99599.66;6126426;23;20239;-78
2022/04/12 02:26:26;;;;;;;7.67;5.10;;;;;;;-0.66;100.00;99593.72;6126575;23;20172;-78
2022/04/12 02:28:53;;;;;;;7.33;5.17;;;;;;;-0.70;100.00;99589.72;6126291;23;20497;-78
2022/04/12 02:31:19;;;;;;;6.50;5.10;;;;;;;-0.70;100.00;99597.59;6126013;23;20215;-78
2022/04/12 02:33:46;;;;;;;6.33;5.20;;;;;;;-0.71;100.00;99608.31;6126330;23;20164;-78
2022/04/12 02:36:13;;;;;;;6.53;4.93;;;;;;;-0.70;100.00;99600.25;6126764;23;20242;-79
2022/04/12 02:38:42;;;;;;;8.00;4.50;;;;;;;-0.72;100.00;99604.00;6126553;23;20198;-78
2022/04/12 02:41:08;;;;;;;7.17;5.33;;;;;;;-0.78;100.00;99607.22;6125979;23;20164;-77
2022/04/12 02:43:35;;;;;;;5.97;4.90;;;;;;;-0.81;100.00;99608.34;6126137;23;20218;-78
2022/04/12 02:46:02;;;;;;;7.17;4.60;;;;;;;-0.80;100.00;99603.94;6125508;23;20242;-77
2022/04/12 02:48:29;;;;;;;6.77;4.63;;;;;;;-0.84;100.00;99605.19;6126134;23;20164;-77
2022/04/12 02:50:56;;;;;;;5.17;4.50;;;;;;;-0.83;100.00;99602.41;6125328;23;20183;-77
2022/04/12 02:53:23;;;;;;;5.90;4.70;;;;;;;-0.85;100.00;99601.75;6126059;23;20242;-77
2022/04/12 02:55:50;;;;;;;6.57;5.27;;;;;;;-0.85;100.00;99603.53;6125198;23;20164;-77
2022/04/12 02:58:16;;;;;;;6.97;4.53;;;;;;;-0.79;100.00;99606.38;6126173;23;20242;-77
2022/04/12 03:00:44;;;;;;;6.67;4.63;;;;;;;-0.88;100.00;99599.38;6125290;23;20486;-77
2022/04/12 03:03:11;;;;;;;6.83;4.60;;;;;;;-0.84;100.00;99599.94;6100447;23;20238;-77
2022/04/12 03:05:38;;;;;;;9.80;5.27;;;;;;;-0.88;100.00;99594.97;6125430;23;20164;-77
2022/04/12 03:08:05;;;;;;;6.60;5.00;;;;;;;-0.91;100.00;99602.31;6125936;23;20172;-77
2022/04/12 03:10:31;;;;;;;5.63;4.80;;;;;;;-0.93;100.00;99601.63;6125301;23;20282;-77
2022/04/12 03:12:58;;;;;;;6.17;5.00;;;;;;;-0.94;100.00;99610.53;6125892;23;20206;-77
2022/04/12 03:15:25;;;;;;;6.57;5.27;;;;;;;-0.93;100.00;99620.03;6124017;23;20550;-77
2022/04/12 03:17:51;;;;;;;5.43;4.87;;;;;;;-0.86;100.00;99618.50;6125431;23;20170;-76
2022/04/12 03:20:18;;;;;;;6.03;5.17;;;;;;;-0.84;100.00;99624.41;6125439;23;20613;-77
2022/04/12 03:22:45;;;;;;;6.03;5.43;;;;;;;-0.90;100.00;99619.75;6125541;23;20163;-77
2022/04/12 03:25:12;;;;;;;7.33;5.50;;;;;;;-0.92;100.00;99622.53;6125655;23;20497;-77
2022/04/12 03:27:38;;;;;;;6.50;5.20;;;;;;;-0.89;100.00;99619.59;6125384;23;20491;-77
2022/04/12 03:30:06;;;;;;;6.20;5.33;;;;;;;-0.94;100.00;99621.03;6125317;23;20164;-76
2022/04/12 03:32:32;;;;;;;7.23;4.93;;;;;;;-0.96;100.00;99629.06;6126253;23;20239;-79
2022/04/12 03:34:59;;;;;;;6.33;5.20;;;;;;;-0.92;100.00;99627.78;6126352;23;20187;-79
2022/04/12 03:37:26;;;;;;;7.67;5.60;;;;;;;-0.93;100.00;99626.13;6126771;23;20171;-80
2022/04/12 03:39:52;;;;;;;7.07;5.20;;;;;;;-0.98;100.00;99622.31;6126329;23;20159;-80
2022/04/12 03:42:19;;;;;;;6.27;4.90;;;;;;;-1.09;100.00;99622.50;6126293;23;20192;-80
2022/04/12 03:44:46;;;;;;;7.97;5.57;;;;;;;-1.15;100.00;99629.16;6126303;23;20223;-79
2022/04/12 03:47:13;;;;;;;6.87;5.70;;;;;;;-1.19;100.00;99625.16;6126517;23;20171;-79
2022/04/12 03:49:40;;;;;;;7.03;5.60;;;;;;;-1.23;100.00;99628.22;6126650;23;20495;-80
2022/04/12 03:52:07;;;;;;;8.00;5.50;;;;;;;-1.21;100.00;99631.56;6126326;23;20194;-79
2022/04/12 03:54:33;;;;;;;9.20;5.50;;;;;;;-1.22;100.00;99637.78;6126477;23;20160;-80
2022/04/12 03:57:00;;;;;;;8.13;5.30;;;;;;;-1.24;100.00;99640.53;6126144;23;20188;-79
2022/04/12 03:59:27;;;;;;;7.00;5.67;;;;;;;-1.26;100.00;99642.47;6126298;23;20166;-80
2022/04/12 04:01:53;;;;;;;11.77;6.53;;;;;;;-1.27;100.00;99640.84;6126370;23;20226;-79
2022/04/12 04:04:20;;;;;;;8.60;5.93;;;;;;;-1.26;100.00;99645.09;6126456;23;20170;-80
2022/04/12 04:06:47;;;;;;;7.27;6.30;;;;;;;-1.27;100.00;99635.56;6126052;23;20156;-79
2022/04/12 04:09:15;;;;;;;8.77;6.03;;;;;;;-1.27;100.00;99632.94;6126418;23;20524;-81
2022/04/12 04:11:42;;;;;;;6.50;5.80;;;;;;;-1.25;100.00;99627.53;6126332;23;20259;-78
2022/04/12 04:14:10;;;;;;;7.20;5.43;;;;;;;-1.23;100.00;99631.69;6124772;23;20190;-79
2022/04/12 04:16:40;;;;;;;5.87;5.20;;;;;;;-1.20;100.00;99641.06;6128925;23;20172;-80
2022/04/12 04:19:09;;;;;;;6.30;5.50;;;;;;;-1.17;100.00;99651.31;6124367;23;20217;-78
2022/04/12 04:21:36;;;;;;;7.47;5.47;;;;;;;-1.12;100.00;99657.78;6125184;23;20174;-79
2022/04/12 04:24:04;;;;;;;5.87;4.87;;;;;;;-1.08;100.00;99658.34;6124704;23;20175;-79
2022/04/12 04:26:31;;;;;;;6.03;4.97;;;;;;;-1.05;100.00;99650.97;6124912;23;20239;-78
2022/04/12 04:28:58;;;;;;;7.20;5.23;;;;;;;-1.08;100.00;99650.44;6124034;23;20184;-81
2022/04/12 04:31:25;;;;;;;7.57;6.77;;;;;;;-1.00;100.00;99659.25;6124094;23;20247;-78
2022/04/12 04:33:56;;;;;;;8.70;7.80;;;;;;;-0.93;100.00;99657.69;6125276;23;20155;-80
2022/04/12 04:36:23;;;;;;;8.10;7.00;;;;;;;-0.90;100.00;99660.06;6125411;23;20159;-78
2022/04/12 04:38:50;;;;;;;7.53;6.73;;;;;;;-0.84;100.00;99663.88;6125669;23;20568;-79
2022/04/12 04:41:17;;;;;;;9.67;6.03;;;;;;;-0.70;100.00;99663.38;6125205;23;20242;-79
2022/04/12 04:43:46;;;;;;;6.87;5.37;;;;;;;-0.58;100.00;99675.38;6125444;23;20637;-79
2022/04/12 04:46:13;;;;;;;5.73;4.80;;;;;;;-0.50;100.00;99674.63;6125247;23;20483;-79
2022/04/12 04:48:41;;;;;;;5.43;4.80;;;;;;;-0.41;100.00;99679.00;6125336;23;20163;-79
2022/04/12 04:51:09;;;;;;;9.37;4.80;;;;;;;-0.26;100.00;99695.97;6125147;23;20529;-79
2022/04/12 04:53:37;;;;;;;6.13;5.10;;;;;;;-0.14;100.00;99696.59;6125466;23;20195;-79
2022/04/12 04:56:05;;;;;;;5.90;4.77;;;;;;;-0.03;100.00;99698.97;6099835;23;20171;-79
2022/04/12 04:58:32;;;;;;;5.50;4.53;;;;;;;0.08;100.00;99690.03;6125649;23;20226;-80
2022/04/12 05:00:58;;;;;;;6.70;4.90;;;;;;;0.27;100.00;99695.97;6125222;23;20707;-80
2022/04/12 05:03:27;;;;;;;5.70;4.80;;;;;;;0.37;100.00;99696.69;6125717;23;20167;-80
2022/04/12 05:05:54;;;;;;;5.90;4.00;;;;;;;0.52;100.00;99696.13;6125563;23;20234;-80
2022/04/12 05:08:20;;;;;;;5.30;4.37;;;;;;;0.66;100.00;99696.41;6125527;23;20167;-80
2022/04/12 05:10:47;;;;;;;5.23;4.37;;;;;;;0.84;100.00;99699.81;6125090;23;20163;-80
2022/04/12 05:13:15;;;;;;;8.57;4.27;;;;;;;1.02;100.00;99702.41;6125493;23;20250;-80
2022/04/12 05:15:42;;;;;;;6.83;4.67;;;;;;;1.18;100.00;99707.75;6125399;23;20175;-81
2022/04/12 05:18:09;;;;;;;5.93;4.33;;;;;;;1.33;100.00;99714.09;6125532;23;20164;-79
2022/04/12 05:20:36;;;;;;;5.67;4.50;;;;;;;1.50;100.00;99719.44;6125333;23;20605;-80
2022/04/12 05:23:08;;;;;;;6.70;4.83;;;;;;;1.64;100.00;99718.81;6125553;23;20160;-79
2022/04/12 05:25:34;;;;;;;5.70;4.50;;;;;;;1.75;100.00;99722.00;6125323;23;20163;-79
2022/04/12 05:28:01;;;;;;;6.97;4.80;;;;;;;1.96;100.00;99726.81;6099839;23;20164;-80
2022/04/12 05:30:29;;;;;;;5.97;4.93;;;;;;;2.08;100.00;99736.13;6125512;23;20164;-80
2022/04/12 05:32:55;;;;;;;9.00;4.90;;;;;;;2.20;100.00;99724.22;6125384;23;20272;-80
2022/04/12 05:35:22;;;;;;;7.53;4.53;;;;;;;2.44;100.00;99731.34;6125445;23;20624;-80
2022/04/12 05:37:53;;;;;;;6.87;4.90;;;;;;;2.55;100.00;99728.38;6125846;23;20168;-81
2022/04/12 05:40:21;;;;;;;7.13;4.33;;;;;;;2.70;100.00;99735.66;6125878;23;20202;-80
2022/04/12 05:42:49;;;;;;;6.60;5.00;;;;;;;2.83;100.00;99733.31;6101455;23;20164;-80
2022/04/12 05:45:16;;;;;;;8.27;4.83;;;;;;;3.00;100.00;99730.47;6101910;23;20587;-80
2022/04/12 05:47:49;;;;;;;5.57;4.63;;;;;;;3.16;100.00;99723.50;6127089;23;20179;-80
2022/04/12 05:50:18;;;;;;;6.00;4.70;;;;;;;3.28;100.00;99743.31;6126562;23;20602;-80
2022/04/12 05:52:45;;;;;;;5.27;4.20;;;;;;;3.44;100.00;99746.75;6126937;23;20279;-80
2022/04/12 05:55:15;;;;;;;5.07;4.40;;;;;;;3.60;100.00;99745.00;6101617;23;20163;-80
2022/04/12 05:57:53;;;;;;;6.93;4.63;;;;;;;3.68;100.00;99745.00;6127187;23;20164;-80
2022/04/12 06:00:20;;;;;;;7.20;4.30;;;;;;;3.91;100.00;99756.47;6126940;23;20163;-79
2022/04/12 06:02:48;;;;;;;5.97;4.60;;;;;;;4.07;100.00;99759.03;6127307;23;20187;-80
2022/04/12 06:05:15;;;;;;;6.63;4.60;;;;;;;4.25;100.00;99769.34;6126981;23;20188;-80
2022/04/12 06:07:42;;;;;;;6.80;4.37;;;;;;;4.40;100.00;99771.06;6127064;23;20187;-80
2022/04/12 06:10:10;;;;;;;5.07;3.93;;;;;;;4.52;100.00;99775.97;6127107;23;20168;-80
2022/04/12 06:12:37;;;;;;;8.10;4.60;;;;;;;4.63;100.00;99773.72;6127328;23;20187;-80
2022/04/12 06:15:04;;;;;;;6.83;4.60;;;;;;;4.81;100.00;99778.72;6127465;23;20172;-79
2022/04/12 06:17:32;;;;;;;8.17;5.17;;;;;;;5.02;100.00;99784.19;6126638;23;20188;-79
2022/04/12 06:20:09;;;;;;;5.83;4.27;;;;;;;5.18;100.00;99781.34;6126368;23;20191;-80
2022/04/12 06:22:36;;;;;;;5.53;4.60;;;;;;;5.36;100.00;99780.22;6126897;23;20155;-78
2022/04/12 06:25:04;;;;;;;4.97;4.47;;;;;;;5.55;100.00;99782.31;6126565;23;20605;-77
2022/04/12 06:27:39;;;;;;;6.80;4.80;;;;;;;5.77;100.00;99778.72;6101056;23;20160;-77
2022/04/12 06:30:09;;;;;;;7.17;4.70;;;;;;;5.97;100.00;99777.16;6126682;23;20234;-76
2022/04/12 06:32:36;;;;;;;5.80;4.50;;;;;;;6.15;100.00;99782.91;6126394;23;20194;-78
2022/04/12 06:35:04;;;;;;;6.90;4.67;;;;;;;6.26;100.00;99781.59;6126484;23;20167;-77
2022/04/12 06:37:31;;;;;;;6.37;4.73;;;;;;;6.46;100.00;99781.81;6126897;23;20174;-77
2022/04/12 06:39:59;;;;;;;6.60;5.33;;;;;;;6.59;100.00;99784.59;6126678;23;20218;-77
2022/04/12 06:42:26;;;;;;;6.77;4.97;;;;;;;6.75;100.00;99781.69;6126614;23;20156;-77
2022/04/12 06:44:53;;;;;;;7.00;5.10;;;;;;;6.87;100.00;99780.13;6126764;23;20548;-78
2022/04/12 06:47:20;;;;;;;6.27;5.03;;;;;;;7.05;100.00;99777.00;6126551;23;20164;-77
2022/04/12 06:49:50;;;;;;;6.57;5.30;;;;;;;7.17;99.74;99770.13;6126429;23;20164;-77
2022/04/12 06:52:19;;;;;;;7.00;5.30;;;;;;;7.27;95.05;99775.94;6126229;23;20387;-77
2022/04/12 06:54:46;;;;;;;6.30;4.97;;;;;;;7.42;90.95;99773.97;6101300;23;20510;-77
2022/04/12 06:57:13;;;;;;;6.93;5.30;;;;;;;7.51;90.70;99777.34;6126262;23;20601;-77
2022/04/12 06:59:40;;;;;;;8.50;5.40;;;;;;;7.64;86.98;99774.75;6126836;23;20168;-78
2022/04/12 07:02:07;;;;;;;6.23;5.33;;;;;;;7.82;86.96;99775.03;6126143;23;20168;-77
2022/04/12 07:04:34;;;;;;;7.30;5.50;;;;;;;8.00;82.09;99776.34;6100792;23;20207;-77
2022/04/12 07:07:01;;;;;;;6.93;5.50;;;;;;;8.09;77.62;99786.63;6126249;23;20617;-77
2022/04/12 07:09:29;;;;;;;8.00;5.90;;;;;;;8.17;73.78;99786.44;6126889;23;20651;-77
2022/04/12 07:11:57;;;;;;;7.33;6.00;;;;;;;8.22;72.50;99784.00;6126020;23;20195;-77
2022/04/12 07:14:24;;;;;;;8.53;7.63;;;;;;;8.47;67.97;99791.50;6126895;23;20603;-77
2022/04/12 07:16:51;;;;;;;8.87;6.57;;;;;;;8.47;70.11;99795.00;6100512;23;20178;-78
2022/04/12 07:19:18;;;;;;;9.80;6.00;;;;;;;8.68;67.25;99786.81;6126109;23;20622;-77
2022/04/12 07:21:44;;;;;;;7.60;5.63;;;;;;;8.80;65.43;99787.88;6126379;23;20215;-77
2022/04/12 07:24:11;;;;;;;7.63;5.87;;;;;;;8.92;65.19;99792.59;6126516;23;20162;-77
2022/04/12 07:26:38;;;;;;;8.07;6.07;;;;;;;9.07;62.97;99786.03;6126252;23;20172;-77
2022/04/12 07:29:05;;;;;;;8.23;6.23;;;;;;;9.11;62.28;99783.75;6125898;23;20234;-78
2022/04/12 07:31:32;;;;;;;8.27;6.33;;;;;;;9.08;60.49;99776.16;6126150;23;20180;-77
2022/04/12 07:34:00;;;;;;;8.70;6.10;;;;;;;9.20;60.47;99771.81;6126297;23;20160;-77
2022/04/12 07:36:26;;;;;;;8.43;6.30;;;;;;;9.25;62.66;99774.69;6126230;23;20164;-78
2022/04/12 07:38:53;;;;;;;8.00;6.53;;;;;;;9.36;60.29;99773.25;6126260;23;20170;-78
2022/04/12 07:41:20;;;;;;;9.00;6.50;;;;;;;9.44;59.57;99775.69;6125935;23;20238;-78
2022/04/12 07:43:47;;;;;;;7.43;6.07;;;;;;;9.51;60.23;99777.34;6126105;23;20187;-77
2022/04/12 07:46:14;;;;;;;7.23;6.27;;;;;;;9.68;59.82;99780.38;6125738;23;20262;-77
2022/04/12 07:48:47;;;;;;;8.00;5.87;;;;;;;9.65;56.38;99783.50;6126256;23;20163;-77
2022/04/12 07:51:14;;;;;;;7.37;5.57;;;;;;;9.79;56.45;99776.25;6125688;23;20607;-77
2022/04/12 07:53:41;;;;;;;10.53;6.07;;;;;;;9.98;55.48;99776.19;6125798;23;20163;-78
2022/04/12 07:56:08;;;;;;;10.23;6.37;;;;;;;9.95;55.15;99775.75;6125912;23;20238;-78
2022/04/12 07:58:34;;;;;;;8.53;6.03;;;;;;;10.09;55.17;99783.53;6126047;23;20697;-78
2022/04/12 08:01:01;;;;;;;8.60;6.67;;;;;;;10.18;54.04;99784.13;6125871;23;20547;-78
2022/04/12 08:03:28;;;;;;;9.40;6.43;;;;;;;10.11;55.81;99780.66;6125767;23;20168;-78
2022/04/12 08:05:55;;;;;;;8.70;6.20;;;;;;;10.19;55.01;99785.78;6125896;23;20168;-78
2022/04/12 08:08:22;;;;;;;6.73;6.00;;;;;;;10.34;55.09;99793.53;6125886;23;20494;-78
2022/04/12 08:10:48;;;;;;;7.70;5.90;;;;;;;10.41;54.74;99788.97;6125693;23;20211;-78
2022/04/12 08:13:15;;;;;;;9.80;6.50;;;;;;;10.53;52.63;99795.28;6125510;23;20190;-78
2022/04/12 08:15:42;;;;;;;7.40;5.97;;;;;;;10.54;52.36;99796.94;6125676;23;20194;-78
2022/04/12 08:18:09;;;;;;;8.83;6.40;;;;;;;10.66;52.30;99795.19;6125640;23;20628;-77
2022/04/12 08:20:36;;;;;;;8.70;6.43;;;;;;;10.58;51.11;99795.47;6125676;23;20483;-78
2022/04/12 08:23:02;;;;;;;8.53;6.40;;;;;;;10.69;51.22;99800.13;6125876;23;20251;-78
2022/04/12 08:25:29;;;;;;;7.73;6.93;;;;;;;10.75;51.36;99811.84;6125615;23;20190;-78
2022/04/12 08:27:56;;;;;;;8.00;6.17;;;;;;;10.81;51.82;99811.81;6125964;23;20160;-78
2022/04/12 08:30:23;;;;;;;8.77;6.33;;;;;;;10.85;51.14;99804.97;6125647;23;20242;-79
2022/04/12 08:32:50;;;;;;;7.77;6.83;;;;;;;10.91;52.65;99797.94;6125822;23;20195;-77
2022/04/12 08:35:17;;;;;;;9.93;6.57;;;;;;;11.07;51.68;99805.41;6125833;23;20167;-78
2022/04/12 08:37:44;;;;;;;10.50;6.63;;;;;;;11.12;52.21;99799.41;6125685;23;20172;-78
2022/04/12 08:40:11;;;;;;;8.07;6.77;;;;;;;11.22;51.80;99786.31;6125847;23;20222;-77
2022/04/12 08:42:38;;;;;;;8.57;6.90;;;;;;;11.34;52.31;99793.41;6125576;23;20250;-78
2022/04/12 08:45:06;;;;;;;8.13;7.07;;;;;;;11.46;50.45;99788.16;6099816;23;20176;-77
2022/04/12 08:47:35;;;;;;;8.53;6.80;;;;;;;11.35;50.13;99787.03;6125471;23;20251;-78
2022/04/12 08:50:04;;;;;;;8.40;6.13;;;;;;;11.50;49.78;99786.69;6125365;23;20168;-77
2022/04/12 08:52:31;;;;;;;7.53;6.60;;;;;;;11.64;49.29;99787.38;6125508;23;20184;-78
2022/04/12 08:54:59;;;;;;;6.87;6.17;;;;;;;11.66;50.38;99774.56;6125622;23;20246;-78
2022/04/12 08:57:25;;;;;;;8.60;6.43;;;;;;;11.89;48.84;99782.78;6125658;23;20262;-78
2022/04/12 08:59:52;;;;;;;7.03;6.33;;;;;;;11.98;48.11;99778.75;6126199;23;20163;-78
2022/04/12 09:02:19;;;;;;;6.80;5.87;;;;;;;12.09;49.20;99779.84;6125647;23;20242;-77
2022/04/12 09:04:45;;;;;;;8.60;6.13;;;;;;;12.08;48.50;99775.53;6100037;23;20167;-78
2022/04/12 09:07:13;;;;;;;8.80;5.90;;;;;;;12.14;47.54;99783.50;6125773;23;20171;-78
2022/04/12 09:09:41;;;;;;;9.80;5.90;;;;;;;12.24;46.85;99785.66;6125561;23;20196;-78
2022/04/12 09:12:10;;;;;;;7.30;5.90;;;;;;;12.33;47.00;99774.38;6099499;23;20270;-78
2022/04/12 09:14:40;;;;;;;7.87;6.97;;;;;;;12.25;47.62;99776.56;6125573;23;20184;-77
2022/04/12 09:17:09;;;;;;;7.37;6.67;;;;;;;12.36;47.22;99770.41;6126952;23;20262;-78
2022/04/12 09:19:49;;;;;;;9.90;6.03;;;;;;;12.48;46.82;99771.28;6127468;23;20191;-78
2022/04/12 09:22:24;;;;;;;9.03;6.53;;;;;;;12.64;46.80;99775.19;6127002;23;20174;-78
2022/04/12 09:24:52;;;;;;;7.07;6.37;;;;;;;12.76;46.26;99765.28;6101970;23;20636;-78
2022/04/12 09:27:27;;;;;;;7.03;6.03;;;;;;;12.87;45.73;99769.88;6127074;23;20632;-78
2022/04/12 09:30:01;;;;;;;9.33;6.17;;;;;;;12.92;46.69;99761.13;6101876;23;20152;-79
2022/04/12 09:32:34;;;;;;;7.70;6.33;;;;;;;12.99;47.27;99759.94;6127032;23;20688;-78
2022/04/12 09:35:00;;;;;;;13.63;6.77;;;;;;;13.13;47.15;99753.31;6126981;23;20594;-78
2022/04/12 09:37:33;;;;;;;7.97;5.47;;;;;;;13.19;44.69;99747.03;6127048;23;20171;-78
2022/04/12 09:40:00;;;;;;;7.00;6.30;;;;;;;13.33;44.75;99738.72;6127026;23;20152;-79
2022/04/12 09:42:55;;;;;;;7.27;5.60;;;;;;;13.52;45.41;99738.34;6126926;23;20188;-78
2022/04/12 09:45:24;;;;;;;6.53;4.97;;;;;;;13.50;42.88;99735.06;6126495;23;20231;-78
2022/04/12 09:47:57;;;;;;;6.47;5.33;;;;;;;13.64;44.37;99741.00;6127104;23;20472;-78
2022/04/12 09:50:44;;;;;;;5.87;5.23;;;;;;;13.73;43.70;99739.59;6127200;23;20227;-78
2022/04/12 09:53:11;;;;;;;7.13;5.40;;;;;;;13.75;42.67;99728.59;6126514;23;20188;-78
2022/04/12 09:55:43;;;;;;;6.30;5.67;;;;;;;13.77;43.77;99724.59;6126973;23;20500;-78
2022/04/12 09:58:31;;;;;;;9.93;5.50;;;;;;;13.78;43.10;99734.31;6126600;23;20164;-77
2022/04/12 10:00:58;;;;;;;7.43;5.63;;;;;;;13.85;42.31;99723.41;6126717;23;20219;-78
2022/04/12 10:03:27;;;;;;;8.10;5.17;;;;;;;14.08;43.27;99728.72;6126711;23;20986;-75
2022/04/12 10:05:54;;;;;;;5.47;4.70;;;;;;;14.16;43.45;99722.13;6125106;23;20256;-76
2022/04/12 10:08:22;;;;;;;4.97;4.40;;;;;;;14.23;41.68;99723.63;6100988;23;20189;-76
2022/04/12 10:10:49;;;;;;;4.93;4.20;;;;;;;14.20;42.16;99715.19;6126783;23;20248;-77
2022/04/12 10:13:16;;;;;;;5.13;4.50;;;;;;;14.29;42.58;99717.25;6126594;23;20199;-78
2022/04/12 10:15:43;;;;;;;6.50;4.20;;;;;;;14.40;41.36;99708.34;6126502;23;20497;-78
2022/04/12 10:18:15;;;;;;;6.13;4.73;;;;;;;14.38;42.16;99705.06;6126381;23;20176;-79
2022/04/12 10:20:43;;;;;;;8.63;5.27;;;;;;;14.57;42.29;99700.28;6101194;23;20186;-79
2022/04/12 10:23:19;;;;;;;8.47;4.97;;;;;;;14.72;41.76;99692.44;6126260;23;20478;-75
2022/04/12 10:25:53;;;;;;;5.93;4.80;;;;;;;14.90;40.59;99694.06;6100971;23;20213;-76
2022/04/12 10:28:21;;;;;;;9.40;5.23;;;;;;;15.11;40.71;99687.13;6125801;23;20149;-78
2022/04/12 10:30:48;;;;;;;7.23;4.90;;;;;;;15.15;40.58;99694.47;6100571;23;20241;-76
2022/04/12 10:33:15;;;;;;;5.67;5.07;;;;;;;15.22;40.71;99691.56;6126166;23;20177;-76
2022/04/12 10:35:44;;;;;;;7.47;5.33;;;;;;;15.17;41.50;99684.22;6126271;23;20602;-75
2022/04/12 10:38:16;;;;;;;7.47;4.80;;;;;;;15.31;40.21;99690.09;6126442;23;20180;-75
2022/04/12 10:40:45;;;;;;;5.73;5.00;;;;;;;15.37;40.30;99676.41;6125865;23;20157;-76
2022/04/12 10:43:33;;;;;;;7.73;5.43;;;;;;;15.45;40.77;99677.88;6126230;23;20235;-78
2022/04/12 10:46:06;;;;;;;5.90;4.37;;;;;;;15.63;39.95;99682.19;6101524;23;20173;-76
2022/04/12 10:48:33;;;;;;;7.03;5.00;;;;;;;15.69;39.56;99676.59;6126112;23;20177;-76
2022/04/12 10:51:03;;;;;;;5.90;5.30;;;;;;;15.81;39.62;99677.28;6100090;23;20544;-76
2022/04/12 10:53:36;;;;;;;6.83;4.73;;;;;;;15.99;40.34;99673.44;6100582;23;20182;-76
2022/04/12 10:56:04;;;;;;;5.90;4.90;;;;;;;16.14;38.69;99672.78;6125969;23;20245;-78
2022/04/12 10:58:32;;;;;;;6.93;4.50;;;;;;;16.26;38.67;99657.22;6125927;23;20610;-77
2022/04/12 11:01:00;;;;;;;6.67;5.07;;;;;;;16.32;37.41;99660.78;6125860;23;20242;-76
2022/04/12 11:03:42;;;;;;;7.00;4.90;;;;;;;16.46;37.04;99659.31;6125916;23;20240;-77
2022/04/12 11:06:12;;;;;;;9.80;4.80;;;;;;;16.47;37.30;99653.63;6125729;23;20170;-77
2022/04/12 11:08:49;;;;;;;5.60;5.00;;;;;;;16.55;37.65;99655.88;6126318;23;20164;-78
2022/04/12 11:11:27;;;;;;;7.20;4.80;;;;;;;16.71;37.62;99657.66;6126075;23;20162;-76
2022/04/12 11:13:55;;;;;;;7.73;5.10;;;;;;;16.55;36.07;99644.22;6125819;23;20179;-78
2022/04/12 11:16:25;;;;;;;6.67;4.83;;;;;;;16.51;37.37;99646.66;6125379;23;20189;-78
2022/04/12 11:19:02;;;;;;;5.90;4.80;;;;;;;16.73;36.88;99639.28;6125359;23;20528;-78
2022/04/12 11:21:57;;;;;;;4.93;4.40;;;;;;;16.65;36.24;99645.19;6100841;23;20152;-78
2022/04/12 11:24:25;;;;;;;6.70;4.80;;;;;;;16.80;36.65;99646.38;6121997;23;20171;-78
2022/04/12 11:27:03;;;;;;;7.83;5.20;;;;;;;16.80;37.17;99644.44;6099937;23;20198;-78
2022/04/12 11:29:30;;;;;;;6.70;5.43;;;;;;;16.87;34.96;99636.94;6124964;23;20594;-78
2022/04/12 11:31:57;;;;;;;6.47;5.00;;;;;;;16.98;36.48;99644.03;6097619;23;20243;-78
2022/04/12 11:34:26;;;;;;;6.40;5.13;;;;;;;16.90;35.29;99647.22;6097678;23;20704;-79
2022/04/12 11:36:59;;;;;;;5.80;5.17;;;;;;;17.04;34.89;99632.16;6123413;23;20609;-78
2022/04/12 11:39:31;;;;;;;6.77;4.70;;;;;;;17.01;35.98;99623.75;6123619;23;20163;-78